Time;durP1;ratioP1;P1;durP2;ratioP2;P2;SDS_P1;SDS_P2;PMS_P1;PMS_P2;Temp;Humidity;BMP_temperature;BMP_pressure;BME280_temperature;BME280_humidity;BME280_pressure;Samples;Min_cycle;Max_cycle;Signal;HPM_P1;HPM_P2
2023/05/18 00:01:52;;;;;;;0.30;0.30;;;;;;;;;;7436325;19;20136;-96
2023/05/18 00:05:07;;;;;;;0.60;0.60;;;;;;;;;;7431780;19;20149;-96
2023/05/18 00:08:11;;;;;;;0.30;0.30;;;;;;;;;;7431202;19;20133;-96
2023/05/18 00:10:56;;;;;;;0.40;0.40;;;;;;;;;;7432196;19;20159;-96
2023/05/18 00:13:55;;;;;;;1.20;0.83;;;;;;;;;;7431022;19;20156;-96
2023/05/18 00:17:24;;;;;;;0.37;0.37;;;;;;;;;;7432701;19;20173;-96
2023/05/18 07:44:54;;;;;;;0.40;0.40;;;;;;;;;;7387756;19;20175;-90
2023/05/18 08:09:27;;;;;;;0.45;0.45;;;;;;;;;;7391703;19;20169;-90
2023/05/18 08:12:06;;;;;;;0.63;0.60;;;;;;;;;;7389039;19;20152;-90
2023/05/18 08:14:33;;;;;;;0.40;0.40;;;;;;;;;;7381712;19;20157;-89
2023/05/18 08:17:07;;;;;;;0.57;0.57;;;;;;;;;;7384122;19;20137;-87
2023/05/18 08:20:22;;;;;;;0.60;0.60;;;;;;;;;;7406333;19;20171;-89
2023/05/18 08:26:23;;;;;;;0.55;0.55;;;;;;;;;;7392362;19;20666;-89
2023/05/18 09:25:43;;;;;;;0.50;0.50;;;;;;;;;;7392965;19;20199;-96
2023/05/18 09:28:13;;;;;;;0.30;0.30;;;;;;;;;;7428685;19;20140;-96
2023/05/18 09:30:41;;;;;;;0.50;0.50;;;;;;;;;;7423518;19;20137;-96
2023/05/18 09:33:16;;;;;;;0.60;0.60;;;;;;;;;;7427223;19;20141;-96
2023/05/18 09:35:45;;;;;;;1.50;0.60;;;;;;;;;;7420944;19;20157;-96
2023/05/18 09:38:16;;;;;;;0.35;0.35;;;;;;;;;;7417393;19;20150;-96
2023/05/18 09:40:44;;;;;;;0.95;0.90;;;;;;;;;;7417848;19;20132;-96
2023/05/18 09:43:11;;;;;;;0.88;0.88;;;;;;;;;;7419705;19;20145;-96
2023/05/18 09:45:41;;;;;;;0.50;0.50;;;;;;;;;;7422514;19;20164;-96
2023/05/18 09:48:09;;;;;;;0.43;0.43;;;;;;;;;;7431869;19;20137;-96
2023/05/18 09:50:50;;;;;;;0.90;0.90;;;;;;;;;;7427018;19;20181;-96
2023/05/18 09:53:30;;;;;;;0.52;0.52;;;;;;;;;;7425298;19;20139;-96
2023/05/18 09:56:02;;;;;;;0.73;0.73;;;;;;;;;;7425685;19;20149;-94
2023/05/18 09:58:33;;;;;;;0.50;0.50;;;;;;;;;;7418345;19;20140;-92
2023/05/18 10:01:13;;;;;;;1.20;0.85;;;;;;;;;;7416117;19;20148;-92
2023/05/18 10:03:40;;;;;;;0.77;0.77;;;;;;;;;;7421696;19;20144;-92
2023/05/18 10:06:11;;;;;;;0.45;0.45;;;;;;;;;;7423318;19;20490;-92
2023/05/18 10:08:39;;;;;;;1.17;1.00;;;;;;;;;;7421283;19;20132;-95
2023/05/18 10:11:06;;;;;;;0.75;0.75;;;;;;;;;;7420739;19;20209;-95
2023/05/18 10:13:33;;;;;;;0.60;0.60;;;;;;;;;;7416240;19;20144;-96
2023/05/18 10:16:06;;;;;;;0.57;0.57;;;;;;;;;;7424739;19;20150;-95
2023/05/18 10:18:37;;;;;;;1.13;1.05;;;;;;;;;;7419699;19;20132;-95
2023/05/18 10:21:06;;;;;;;0.75;0.63;;;;;;;;;;7420298;19;20129;-94
2023/05/18 10:23:35;;;;;;;0.63;0.63;;;;;;;;;;7420829;19;20133;-96
2023/05/18 10:26:06;;;;;;;0.65;0.65;;;;;;;;;;7419230;19;20125;-95
2023/05/18 10:28:48;;;;;;;0.50;0.50;;;;;;;;;;7420503;19;20186;-94
2023/05/18 10:31:15;;;;;;;1.00;0.80;;;;;;;;;;7423789;19;20129;-96
2023/05/18 10:33:43;;;;;;;1.23;0.98;;;;;;;;;;7423351;19;20140;-96
2023/05/18 10:36:24;;;;;;;0.40;0.40;;;;;;;;;;7423813;19;20144;-95
2023/05/18 10:38:51;;;;;;;0.52;0.52;;;;;;;;;;7424337;19;20133;-96
2023/05/18 10:41:21;;;;;;;0.40;0.40;;;;;;;;;;7427243;19;20154;-95
2023/05/18 10:43:48;;;;;;;0.90;0.90;;;;;;;;;;7421086;19;20553;-96
2023/05/18 10:46:15;;;;;;;0.50;0.50;;;;;;;;;;7424875;19;20157;-96
2023/05/18 10:48:45;;;;;;;2.83;0.98;;;;;;;;;;7421827;19;20133;-96
2023/05/18 10:51:13;;;;;;;0.68;0.68;;;;;;;;;;7420079;19;20176;-95
2023/05/18 10:53:42;;;;;;;0.65;0.65;;;;;;;;;;7422381;19;20125;-95
2023/05/18 10:56:09;;;;;;;0.73;0.73;;;;;;;;;;7419327;19;20133;-96
2023/05/18 10:58:37;;;;;;;0.85;0.85;;;;;;;;;;7421004;19;20133;-96
2023/05/18 11:01:06;;;;;;;0.77;0.77;;;;;;;;;;7417645;19;20133;-96
2023/05/18 11:03:33;;;;;;;1.15;1.02;;;;;;;;;;7426568;19;20145;-96
2023/05/18 11:06:07;;;;;;;1.17;1.08;;;;;;;;;;7423365;19;20140;-96
2023/05/18 11:09:01;;;;;;;0.57;0.57;;;;;;;;;;7425749;19;20147;-96
2023/05/18 11:11:31;;;;;;;0.50;0.50;;;;;;;;;;7422304;19;20153;-97
2023/05/18 11:14:01;;;;;;;0.98;0.98;;;;;;;;;;7417842;19;20201;-96
2023/05/18 11:16:35;;;;;;;0.60;0.60;;;;;;;;;;7423324;19;20137;-96
2023/05/18 11:19:08;;;;;;;0.77;0.77;;;;;;;;;;7423543;19;20133;-96
2023/05/18 11:21:35;;;;;;;0.70;0.70;;;;;;;;;;7420063;19;20125;-96
2023/05/18 11:24:17;;;;;;;1.00;1.00;;;;;;;;;;7422323;19;20201;-96
2023/05/18 11:26:54;;;;;;;0.40;0.40;;;;;;;;;;7420415;19;20133;-96
2023/05/18 11:29:31;;;;;;;1.85;1.40;;;;;;;;;;7426609;19;20165;-96
2023/05/18 11:31:59;;;;;;;0.50;0.50;;;;;;;;;;7424720;19;20152;-96
2023/05/18 11:34:39;;;;;;;0.52;0.50;;;;;;;;;;7427613;19;20159;-96
2023/05/18 11:37:08;;;;;;;2.55;1.33;;;;;;;;;;7425028;19;20136;-96
2023/05/18 11:39:36;;;;;;;0.45;0.43;;;;;;;;;;7423216;19;20120;-96
2023/05/18 11:42:17;;;;;;;0.63;0.63;;;;;;;;;;7425478;19;20141;-96
2023/05/18 11:44:56;;;;;;;0.60;0.60;;;;;;;;;;7423801;19;20153;-96
2023/05/18 11:47:29;;;;;;;0.68;0.68;;;;;;;;;;7417033;19;20140;-96
2023/05/18 11:49:56;;;;;;;1.55;0.55;;;;;;;;;;7418646;19;20174;-96
2023/05/18 11:52:24;;;;;;;0.98;0.65;;;;;;;;;;7421921;19;20141;-96
2023/05/18 11:54:53;;;;;;;0.40;0.40;;;;;;;;;;7424469;19;20145;-96
2023/05/18 11:57:26;;;;;;;1.08;1.00;;;;;;;;;;7418638;19;20129;-96
2023/05/18 11:59:55;;;;;;;0.70;0.70;;;;;;;;;;7417449;19;20129;-96
2023/05/18 12:02:33;;;;;;;0.50;0.50;;;;;;;;;;7425483;19;20133;-96
2023/05/18 12:05:01;;;;;;;0.70;0.70;;;;;;;;;;7421888;19;20197;-96
2023/05/18 12:07:33;;;;;;;0.63;0.63;;;;;;;;;;7419848;19;20137;-96
2023/05/18 12:10:06;;;;;;;0.50;0.50;;;;;;;;;;7422040;19;20137;-96
2023/05/18 12:12:34;;;;;;;0.40;0.40;;;;;;;;;;7419335;19;20171;-96
2023/05/18 12:15:04;;;;;;;1.20;0.65;;;;;;;;;;7421698;19;20164;-96
2023/05/18 12:17:41;;;;;;;0.30;0.30;;;;;;;;;;7418650;19;20129;-96
2023/05/18 12:20:12;;;;;;;0.45;0.45;;;;;;;;;;7412657;19;20144;-96
2023/05/18 12:22:40;;;;;;;0.70;0.70;;;;;;;;;;7418742;19;20136;-96
2023/05/18 12:25:07;;;;;;;0.35;0.35;;;;;;;;;;7421199;19;20223;-96
2023/05/18 12:27:42;;;;;;;0.40;0.40;;;;;;;;;;7419569;19;20687;-96
2023/05/18 12:30:11;;;;;;;0.85;0.85;;;;;;;;;;7427700;19;20140;-96
2023/05/18 12:32:53;;;;;;;0.50;0.50;;;;;;;;;;7429221;19;20145;-96
2023/05/18 12:35:25;;;;;;;1.10;0.82;;;;;;;;;;7428607;19;20165;-96
2023/05/18 12:37:54;;;;;;;0.70;0.70;;;;;;;;;;7425519;19;20168;-96
2023/05/18 12:40:22;;;;;;;0.50;0.50;;;;;;;;;;7430868;19;20129;-96
2023/05/18 12:42:53;;;;;;;1.38;0.73;;;;;;;;;;7432010;19;20135;-96
2023/05/18 12:45:32;;;;;;;0.80;0.80;;;;;;;;;;7431281;19;20173;-96
2023/05/18 12:48:07;;;;;;;0.40;0.40;;;;;;;;;;7430434;19;20128;-96
2023/05/18 12:50:37;;;;;;;2.08;0.55;;;;;;;;;;7433657;19;20128;-96
2023/05/18 12:53:05;;;;;;;0.57;0.55;;;;;;;;;;7431067;19;20144;-96
2023/05/18 12:55:33;;;;;;;0.40;0.40;;;;;;;;;;7430472;19;20180;-96
2023/05/18 12:58:17;;;;;;;0.50;0.50;;;;;;;;;;7432492;19;20140;-96
2023/05/18 13:00:47;;;;;;;0.40;0.40;;;;;;;;;;7429915;19;20133;-96
2023/05/18 13:03:18;;;;;;;1.48;1.05;;;;;;;;;;7391802;19;20141;-96
2023/05/18 13:06:03;;;;;;;1.08;0.70;;;;;;;;;;7388131;19;20168;-93
2023/05/18 13:08:31;;;;;;;0.32;0.32;;;;;;;;;;7389493;19;20151;-93
2023/05/18 13:11:06;;;;;;;0.50;0.50;;;;;;;;;;7390284;19;20156;-92
2023/05/18 13:14:06;;;;;;;0.32;0.32;;;;;;;;;;7389950;19;20193;-95
2023/05/18 13:16:36;;;;;;;1.33;1.15;;;;;;;;;;7392761;19;20137;-93
2023/05/18 13:19:05;;;;;;;0.60;0.60;;;;;;;;;;7390150;19;20610;-93
2023/05/18 13:21:33;;;;;;;0.60;0.60;;;;;;;;;;7390654;19;20181;-93
2023/05/18 13:24:00;;;;;;;0.40;0.40;;;;;;;;;;7392070;19;20168;-92
2023/05/18 13:26:27;;;;;;;0.30;0.30;;;;;;;;;;7388849;19;20601;-93
2023/05/18 13:28:55;;;;;;;0.65;0.65;;;;;;;;;;7388403;19;20140;-93
2023/05/18 13:31:22;;;;;;;0.40;0.40;;;;;;;;;;7385849;19;20636;-92
2023/05/18 13:33:49;;;;;;;0.43;0.43;;;;;;;;;;7389838;19;20200;-94
2023/05/18 13:36:16;;;;;;;1.55;1.05;;;;;;;;;;7382755;19;20140;-92
2023/05/18 13:38:43;;;;;;;1.35;0.68;;;;;;;;;;7390434;19;20141;-92
2023/05/18 13:41:13;;;;;;;0.73;0.73;;;;;;;;;;7402966;19;20137;-96
2023/05/18 13:43:46;;;;;;;0.47;0.47;;;;;;;;;;7425928;19;20140;-96
2023/05/18 13:46:13;;;;;;;0.60;0.60;;;;;;;;;;7418191;19;20397;-96
2023/05/18 13:48:40;;;;;;;1.05;0.52;;;;;;;;;;7416516;19;20137;-96
2023/05/18 13:51:07;;;;;;;0.30;0.30;;;;;;;;;;7423657;19;20121;-96
2023/05/18 13:53:35;;;;;;;0.65;0.65;;;;;;;;;;7414014;19;20138;-96
2023/05/18 13:56:05;;;;;;;0.43;0.43;;;;;;;;;;7425208;19;20141;-96
2023/05/18 13:58:32;;;;;;;0.70;0.70;;;;;;;;;;7424889;19;20569;-96
2023/05/18 14:01:02;;;;;;;0.68;0.68;;;;;;;;;;7426915;19;20153;-96
2023/05/18 14:03:29;;;;;;;0.45;0.45;;;;;;;;;;7423793;19;20132;-96
2023/05/18 14:05:56;;;;;;;0.30;0.30;;;;;;;;;;7418018;19;20174;-96
2023/05/18 14:08:23;;;;;;;0.82;0.82;;;;;;;;;;7416995;19;20154;-96
2023/05/18 14:10:50;;;;;;;0.35;0.35;;;;;;;;;;7410053;19;20140;-96
2023/05/18 14:13:17;;;;;;;0.63;0.63;;;;;;;;;;7422781;19;20137;-96
2023/05/18 14:15:44;;;;;;;0.50;0.50;;;;;;;;;;7420725;19;20164;-96
2023/05/18 14:18:11;;;;;;;0.68;0.63;;;;;;;;;;7419946;19;20145;-96
2023/05/18 14:20:38;;;;;;;0.50;0.50;;;;;;;;;;7422079;19;20176;-96
2023/05/18 14:23:05;;;;;;;0.98;0.98;;;;;;;;;;7424222;19;20154;-96
2023/05/18 14:25:35;;;;;;;0.52;0.52;;;;;;;;;;7425017;19;20189;-96
2023/05/18 14:28:02;;;;;;;0.57;0.57;;;;;;;;;;7422843;19;20154;-96
2023/05/18 14:46:43;;;;;;;0.57;0.57;;;;;;;;;;7393159;19;20148;-90
2023/05/18 14:49:10;;;;;;;0.80;0.80;;;;;;;;;;7385746;19;20189;-90
2023/05/18 14:51:37;;;;;;;1.58;0.60;;;;;;;;;;7388905;19;20738;-89
2023/05/18 14:54:03;;;;;;;0.68;0.68;;;;;;;;;;7392908;19;20197;-90
2023/05/18 14:56:30;;;;;;;0.63;0.63;;;;;;;;;;7388982;19;20740;-85
2023/05/18 14:59:05;;;;;;;0.50;0.50;;;;;;;;;;7401386;19;20257;-86
2023/05/18 15:01:32;;;;;;;1.40;0.95;;;;;;;;;;7399240;19;20136;-83
2023/05/18 15:03:59;;;;;;;0.43;0.43;;;;;;;;;;7402509;19;20162;-83
2023/05/18 15:06:27;;;;;;;0.65;0.65;;;;;;;;;;7402870;19;20145;-88
2023/05/18 15:08:54;;;;;;;0.70;0.70;;;;;;;;;;7389987;19;20177;-90
2023/05/18 15:11:21;;;;;;;0.30;0.30;;;;;;;;;;7390826;19;20120;-90
2023/05/18 15:13:48;;;;;;;0.77;0.77;;;;;;;;;;7388339;19;20176;-90
2023/05/18 15:16:18;;;;;;;0.68;0.68;;;;;;;;;;7390160;19;20141;-89
2023/05/18 15:18:54;;;;;;;0.75;0.75;;;;;;;;;;7393754;19;20845;-89
2023/05/18 15:26:13;;;;;;;0.43;0.43;;;;;;;;;;7387926;19;20148;-89
2023/05/18 15:34:01;;;;;;;0.60;0.60;;;;;;;;;;7396614;19;20196;-90
2023/05/18 15:36:52;;;;;;;0.50;0.50;;;;;;;;;;7406605;19;20616;-88
2023/05/18 15:39:27;;;;;;;0.77;0.77;;;;;;;;;;7394391;19;20153;-90
2023/05/18 15:41:55;;;;;;;0.70;0.70;;;;;;;;;;7396954;19;20155;-89
2023/05/18 15:44:22;;;;;;;0.70;0.70;;;;;;;;;;7395346;19;20677;-89
2023/05/18 15:46:59;;;;;;;0.60;0.60;;;;;;;;;;7403552;19;20169;-88
2023/05/18 15:49:29;;;;;;;0.75;0.75;;;;;;;;;;7397021;19;20561;-91
2023/05/18 15:52:54;;;;;;;0.40;0.40;;;;;;;;;;7396477;19;20148;-90
2023/05/18 15:55:49;;;;;;;0.50;0.50;;;;;;;;;;7392181;19;20133;-91
2023/05/18 16:13:04;;;;;;;0.55;0.55;;;;;;;;;;7419441;19;20215;-95
2023/05/18 16:16:15;;;;;;;0.70;0.70;;;;;;;;;;7434260;19;20181;-96
2023/05/18 16:19:27;;;;;;;0.73;0.73;;;;;;;;;;7433887;19;20165;-96
2023/05/18 16:23:02;;;;;;;0.50;0.50;;;;;;;;;;7437320;19;20148;-96
2023/05/18 16:25:33;;;;;;;0.50;0.50;;;;;;;;;;7426163;19;20176;-94
2023/05/18 16:28:00;;;;;;;0.45;0.45;;;;;;;;;;7427583;19;20136;-96
2023/05/18 16:30:44;;;;;;;0.80;0.80;;;;;;;;;;7433087;19;20132;-95
2023/05/18 17:08:56;;;;;;;0.45;0.45;;;;;;;;;;7400345;19;20226;-89
2023/05/18 17:11:25;;;;;;;0.43;0.43;;;;;;;;;;7405309;19;20525;-87
2023/05/18 17:13:53;;;;;;;0.55;0.55;;;;;;;;;;7403784;19;20498;-87
2023/05/18 17:16:20;;;;;;;1.08;1.05;;;;;;;;;;7404698;19;20684;-88
2023/05/18 17:18:47;;;;;;;0.30;0.30;;;;;;;;;;7401839;19;20717;-88
2023/05/18 17:21:15;;;;;;;0.40;0.40;;;;;;;;;;7406021;19;20136;-88
2023/05/18 17:23:41;;;;;;;0.50;0.50;;;;;;;;;;7402329;19;20125;-88
2023/05/18 17:26:08;;;;;;;0.52;0.52;;;;;;;;;;7404327;19;20149;-88
2023/05/18 17:28:35;;;;;;;0.75;0.50;;;;;;;;;;7401260;19;20161;-88
2023/05/18 17:31:02;;;;;;;0.95;0.95;;;;;;;;;;7403882;19;20135;-88
2023/05/18 17:33:29;;;;;;;2.97;1.65;;;;;;;;;;7406229;19;20145;-89
2023/05/18 17:35:56;;;;;;;0.60;0.60;;;;;;;;;;7405289;19;20601;-88
2023/05/18 17:38:22;;;;;;;0.70;0.70;;;;;;;;;;7399321;19;20165;-91
2023/05/18 17:40:49;;;;;;;0.75;0.60;;;;;;;;;;7401590;19;20143;-89
2023/05/18 17:43:16;;;;;;;0.50;0.50;;;;;;;;;;7399888;19;20151;-89
2023/05/18 17:45:42;;;;;;;0.40;0.40;;;;;;;;;;7400420;19;20722;-89
2023/05/18 17:48:09;;;;;;;0.80;0.65;;;;;;;;;;7401890;19;20163;-89
2023/05/18 17:50:36;;;;;;;0.50;0.50;;;;;;;;;;7400642;19;20129;-89
2023/05/18 17:53:03;;;;;;;0.50;0.50;;;;;;;;;;7400633;19;20721;-87
2023/05/18 17:55:30;;;;;;;0.32;0.32;;;;;;;;;;7399909;19;20581;-90
2023/05/18 17:57:59;;;;;;;0.65;0.65;;;;;;;;;;7402825;19;20153;-88
2023/05/18 18:00:26;;;;;;;0.50;0.50;;;;;;;;;;7402907;19;20141;-88
2023/05/18 18:02:54;;;;;;;0.60;0.60;;;;;;;;;;7402082;19;20145;-89
2023/05/18 18:05:29;;;;;;;1.15;1.10;;;;;;;;;;7404194;19;20201;-88
2023/05/18 18:08:20;;;;;;;1.25;0.80;;;;;;;;;;7402011;19;20172;-89
2023/05/18 18:15:08;;;;;;;0.40;0.40;;;;;;;;;;7401241;19;20169;-89
2023/05/18 18:22:38;;;;;;;0.68;0.68;;;;;;;;;;7389302;19;20149;-90
2023/05/18 18:25:39;;;;;;;0.93;0.85;;;;;;;;;;7392854;19;20606;-87
2023/05/18 18:28:43;;;;;;;0.65;0.65;;;;;;;;;;7391371;19;20156;-89
2023/05/18 18:31:10;;;;;;;1.45;1.13;;;;;;;;;;7394276;19;20152;-88
2023/05/18 18:34:32;;;;;;;1.55;0.85;;;;;;;;;;7391372;19;20144;-90
2023/05/18 18:39:48;;;;;;;0.95;0.95;;;;;;;;;;7393651;19;20148;-88
2023/05/18 18:42:16;;;;;;;0.50;0.50;;;;;;;;;;7395150;19;20173;-88
2023/05/18 18:44:46;;;;;;;0.85;0.85;;;;;;;;;;7402020;19;20140;-87
2023/05/18 18:47:13;;;;;;;0.60;0.60;;;;;;;;;;7394984;19;20168;-89
2023/05/18 18:49:40;;;;;;;0.70;0.70;;;;;;;;;;7391477;19;20144;-90
2023/05/18 18:52:07;;;;;;;1.02;1.02;;;;;;;;;;7392837;19;20137;-90
2023/05/18 18:54:33;;;;;;;0.50;0.50;;;;;;;;;;7391949;19;20145;-91
2023/05/18 18:57:00;;;;;;;0.80;0.80;;;;;;;;;;7391302;19;20145;-92
2023/05/18 18:59:27;;;;;;;0.68;0.68;;;;;;;;;;7390823;19;20169;-90
2023/05/18 19:01:57;;;;;;;0.63;0.63;;;;;;;;;;7393267;19;20145;-90
2023/05/18 19:04:34;;;;;;;0.40;0.40;;;;;;;;;;7397972;19;20145;-90
2023/05/18 19:11:13;;;;;;;0.57;0.57;;;;;;;;;;7392713;19;20200;-91
2023/05/18 19:13:57;;;;;;;0.47;0.47;;;;;;;;;;7397041;19;20283;-91
2023/05/18 19:19:42;;;;;;;0.30;0.30;;;;;;;;;;7400981;19;20192;-91
2023/05/18 19:22:19;;;;;;;0.95;0.85;;;;;;;;;;7396508;19;20168;-92
2023/05/18 19:29:06;;;;;;;0.80;0.80;;;;;;;;;;7390830;19;20669;-92
2023/05/18 19:31:34;;;;;;;0.65;0.65;;;;;;;;;;7390357;19;20225;-92
2023/05/18 19:34:01;;;;;;;0.90;0.87;;;;;;;;;;7389001;19;20501;-92
2023/05/18 19:36:28;;;;;;;0.30;0.30;;;;;;;;;;7391878;19;20161;-92
2023/05/18 19:38:54;;;;;;;0.37;0.37;;;;;;;;;;7388329;19;20567;-92
2023/05/18 19:41:22;;;;;;;0.30;0.30;;;;;;;;;;7390570;19;20153;-92
2023/05/18 19:43:59;;;;;;;0.50;0.50;;;;;;;;;;7391633;19;20137;-92
2023/05/18 19:46:40;;;;;;;0.37;0.37;;;;;;;;;;7393939;19;20168;-89
2023/05/18 19:49:10;;;;;;;0.30;0.30;;;;;;;;;;7386687;19;20164;-90
2023/05/18 19:51:50;;;;;;;0.40;0.40;;;;;;;;;;7385173;19;20623;-89
2023/05/18 19:55:03;;;;;;;0.30;0.30;;;;;;;;;;7386033;19;20614;-92
2023/05/18 19:58:21;;;;;;;0.47;0.47;;;;;;;;;;7383848;19;20165;-91
2023/05/18 20:04:15;;;;;;;0.40;0.40;;;;;;;;;;7385140;19;20612;-92
2023/05/18 20:06:48;;;;;;;0.67;0.67;;;;;;;;;;7385176;19;20156;-92
2023/05/18 20:09:30;;;;;;;0.70;0.70;;;;;;;;;;7381981;19;20172;-92
2023/05/18 20:12:08;;;;;;;1.13;1.03;;;;;;;;;;7386006;19;20172;-90
2023/05/18 20:14:44;;;;;;;0.63;0.63;;;;;;;;;;7388441;19;20144;-92
2023/05/18 20:31:34;;;;;;;0.47;0.47;;;;;;;;;;7326451;19;20432;-90
2023/05/18 20:41:00;;;;;;;0.53;0.53;;;;;;;;;;7371844;19;20196;-90
2023/05/18 20:43:45;;;;;;;0.63;0.63;;;;;;;;;;7390004;19;20560;-90
2023/05/18 20:46:54;;;;;;;0.40;0.40;;;;;;;;;;7393694;19;20152;-90
2023/05/18 20:53:36;;;;;;;0.83;0.83;;;;;;;;;;7401076;19;20119;-90
2023/05/18 21:00:20;;;;;;;0.40;0.40;;;;;;;;;;7407047;19;20116;-90
2023/05/18 21:10:08;;;;;;;0.40;0.40;;;;;;;;;;7365565;19;20184;-90
2023/05/18 21:16:56;;;;;;;0.50;0.50;;;;;;;;;;7396426;19;20148;-90
2023/05/18 21:26:55;;;;;;;0.30;0.30;;;;;;;;;;7397162;19;20123;-90
2023/05/18 21:30:14;;;;;;;1.60;0.87;;;;;;;;;;7393220;19;20157;-88
2023/05/18 21:33:46;;;;;;;;;;;;;;;;;;;;;
2023/05/18 21:36:33;;;;;;;2.33;1.40;;;;;;;;;;7393689;19;20140;-91
2023/05/18 22:00:59;;;;;;;0.30;0.30;;;;;;;;;;7397747;19;20616;-90
2023/05/18 22:03:29;;;;;;;0.73;0.70;;;;;;;;;;7386272;19;20189;-91
2023/05/18 22:06:00;;;;;;;0.30;0.30;;;;;;;;;;7371709;19;20192;-90
2023/05/18 22:08:48;;;;;;;0.40;0.40;;;;;;;;;;7370514;19;20209;-91
2023/05/18 22:11:28;;;;;;;0.60;0.60;;;;;;;;;;7345995;19;20545;-91
2023/05/18 22:13:56;;;;;;;0.40;0.40;;;;;;;;;;7369256;19;20205;-91
2023/05/18 22:17:05;;;;;;;0.50;0.50;;;;;;;;;;7349756;19;20672;-90
2023/05/18 22:20:10;;;;;;;0.90;0.60;;;;;;;;;;7348228;19;20188;-91
2023/05/18 22:22:41;;;;;;;0.50;0.50;;;;;;;;;;7364392;19;20196;-90
2023/05/18 22:25:18;;;;;;;0.80;0.80;;;;;;;;;;7369372;19;20680;-89
2023/05/18 22:27:48;;;;;;;0.87;0.73;;;;;;;;;;7391341;19;20192;-91
2023/05/18 22:30:29;;;;;;;0.90;0.90;;;;;;;;;;7391595;19;20192;-91
2023/05/18 22:32:57;;;;;;;0.87;0.87;;;;;;;;;;7372354;19;20200;-91
2023/05/18 22:35:28;;;;;;;0.37;0.37;;;;;;;;;;7368505;19;20698;-90
2023/05/18 22:37:58;;;;;;;0.33;0.33;;;;;;;;;;7370355;19;20200;-90
2023/05/18 22:40:52;;;;;;;0.47;0.47;;;;;;;;;;7367908;19;20220;-90
2023/05/18 22:43:56;;;;;;;0.40;0.40;;;;;;;;;;7388158;19;20199;-91
2023/05/18 22:46:39;;;;;;;0.43;0.43;;;;;;;;;;7365464;19;20669;-91
2023/05/18 22:49:39;;;;;;;0.40;0.40;;;;;;;;;;7367444;19;20252;-90
2023/05/18 22:56:26;;;;;;;;;;;;;;;;;;;;;
2023/05/18 22:59:00;;;;;;;0.20;0.20;;;;;;;;;;7392127;19;20168;-88
2023/05/18 23:01:30;;;;;;;0.47;0.47;;;;;;;;;;7375381;19;20209;-91
2023/05/18 23:04:35;;;;;;;9.10;0.60;;;;;;;;;;7391030;19;20716;-91
2023/05/18 23:07:20;;;;;;;0.50;0.50;;;;;;;;;;7346732;19;20196;-90
2023/05/18 23:09:54;;;;;;;0.40;0.40;;;;;;;;;;7367689;19;20192;-91
2023/05/18 23:12:37;;;;;;;0.40;0.40;;;;;;;;;;7389817;19;20665;-91
2023/05/18 23:15:17;;;;;;;0.43;0.43;;;;;;;;;;7390447;19;20192;-91
2023/05/18 23:25:42;;;;;;;0.30;0.30;;;;;;;;;;7392195;19;20196;-89
2023/05/18 23:28:09;;;;;;;0.60;0.60;;;;;;;;;;7389455;19;20220;-90
2023/05/18 23:30:36;;;;;;;0.30;0.30;;;;;;;;;;7391709;19;20202;-90
2023/05/18 23:33:03;;;;;;;0.33;0.33;;;;;;;;;;7390574;19;20764;-90
2023/05/18 23:35:30;;;;;;;0.60;0.60;;;;;;;;;;7390812;19;20188;-89
2023/05/18 23:38:03;;;;;;;0.27;0.27;;;;;;;;;;7390261;19;20205;-90
2023/05/18 23:40:30;;;;;;;0.60;0.60;;;;;;;;;;7391470;19;20216;-90
2023/05/18 23:42:57;;;;;;;0.60;0.60;;;;;;;;;;7389061;19;20188;-89
2023/05/18 23:45:24;;;;;;;0.30;0.30;;;;;;;;;;7388898;19;20289;-91
2023/05/18 23:47:54;;;;;;;0.53;0.50;;;;;;;;;;7388310;19;20216;-90
2023/05/18 23:50:21;;;;;;;5.60;0.83;;;;;;;;;;7390345;19;20208;-90
2023/05/18 23:52:51;;;;;;;0.40;0.40;;;;;;;;;;7390902;19;20276;-90
2023/05/18 23:55:22;;;;;;;0.53;0.53;;;;;;;;;;7361069;19;20188;-90
2023/05/18 23:57:51;;;;;;;0.50;0.50;;;;;;;;;;7387799;19;20606;-90
